Time;durP1;ratioP1;P1;durP2;ratioP2;P2;SDS_P1;SDS_P2;PMS_P1;PMS_P2;Temp;Humidity;BMP_temperature;BMP_pressure;BME280_temperature;BME280_humidity;BME280_pressure;Samples;Min_cycle;Max_cycle;Signal;HPM_P1;HPM_P2
2022/01/25 00:24:17;;;;;;;93.73;45.27;;;4.00;89.30;;;;;;5036163;28;20153;-89
2022/01/25 00:24:28;;;;;;;94.83;48.27;;;4.00;89.20;;;;;;5036568;28;20222;-88
2022/01/25 00:27:13;;;;;;;102.00;49.27;;;3.90;89.20;;;;;;5018386;28;20215;-88
2022/01/25 00:32:08;;;;;;;107.17;52.10;;;3.90;89.50;;;;;;5036283;28;20181;-88
2022/01/25 00:34:33;;;;;;;97.90;48.73;;;4.00;89.50;;;;;;5034803;28;20275;-88
2022/01/25 00:36:59;;;;;;;107.27;49.73;;;4.00;89.40;;;;;;5018662;28;20208;-88
2022/01/25 00:39:24;;;;;;;112.97;51.47;;;4.00;89.30;;;;;;5038399;28;20173;-88
2022/01/25 00:41:50;;;;;;;101.93;50.37;;;3.90;89.40;;;;;;5039195;28;20187;-86
2022/01/25 00:44:20;;;;;;;102.97;50.40;;;3.90;89.50;;;;;;5023489;28;20276;-89
2022/01/25 00:46:45;;;;;;;107.57;51.50;;;4.00;89.50;;;;;;5041178;28;20256;-87
2022/01/25 00:49:15;;;;;;;115.27;54.63;;;4.00;89.40;;;;;;5023714;28;20228;-88
2022/01/25 00:54:26;;;;;;;105.37;52.90;;;4.00;89.40;;;;;;5041877;28;20172;-88
2022/01/25 00:56:53;;;;;;;112.67;52.43;;;4.00;89.40;;;;;;5024798;28;20219;-88
2022/01/25 00:59:22;;;;;;;117.27;52.90;;;4.00;89.40;;;;;;5022476;28;20560;-87
2022/01/25 01:01:51;;;;;;;111.87;55.70;;;3.90;89.40;;;;;;5021534;28;20191;-87
2022/01/25 01:04:18;;;;;;;104.00;48.83;;;4.00;89.40;;;;;;5022164;28;20258;-87
2022/01/25 01:06:45;;;;;;;113.00;51.73;;;4.00;89.20;;;;;;5022466;28;20181;-88
2022/01/25 01:09:12;;;;;;;119.07;57.20;;;4.00;89.30;;;;;;5024407;28;20201;-89
2022/01/25 01:11:49;;;;;;;107.90;50.27;;;4.00;89.20;;;;;;5025612;28;20177;-88
2022/01/25 01:14:38;;;;;;;110.30;52.87;;;4.00;89.10;;;;;;5025093;28;20178;-88
2022/01/25 01:38:52;;;;;;;123.37;55.53;;;3.90;89.70;;;;;;5037460;28;20200;-87
2022/01/25 01:43:37;;;;;;;106.80;52.63;;;3.90;89.60;;;;;;5039043;28;20244;-88
2022/01/25 01:51:38;;;;;;;111.27;54.63;;;3.90;89.70;;;;;;5022638;28;20177;-88
2022/01/25 01:54:14;;;;;;;121.10;54.80;;;3.90;89.80;;;;;;5040325;28;20165;-89
2022/01/25 01:56:41;;;;;;;122.13;58.33;;;4.00;89.50;;;;;;5020405;28;20208;-88
2022/01/25 01:59:10;;;;;;;112.80;52.83;;;3.90;89.70;;;;;;5038571;28;20184;-88
2022/01/25 02:01:38;;;;;;;111.30;54.93;;;3.90;89.80;;;;;;5020286;28;20188;-89
2022/01/25 02:04:05;;;;;;;110.97;53.37;;;3.90;89.90;;;;;;5039980;28;20230;-88
2022/01/25 02:06:31;;;;;;;115.33;56.07;;;3.90;89.80;;;;;;5022341;28;20186;-89
2022/01/25 02:08:58;;;;;;;113.93;54.93;;;3.90;89.70;;;;;;5039741;28;20208;-88
2022/01/25 02:11:24;;;;;;;113.67;55.53;;;3.90;89.70;;;;;;5021671;28;20231;-88
2022/01/25 02:13:50;;;;;;;114.70;53.93;;;3.90;89.80;;;;;;5039823;28;20249;-89
2022/01/25 02:16:44;;;;;;;117.40;56.63;;;3.90;89.70;;;;;;5021993;28;20658;-86
2022/01/25 02:22:58;;;;;;;109.23;54.80;;;3.90;89.80;;;;;;5038053;28;20188;-87
2022/01/25 02:24:53;;;;;;;108.93;55.10;;;3.90;89.80;;;;;;5020384;28;20185;-88
2022/01/25 02:27:19;;;;;;;116.40;56.67;;;3.90;89.90;;;;;;5039140;28;20283;-88
2022/01/25 02:29:45;;;;;;;122.53;58.33;;;3.90;89.90;;;;;;5038734;28;20169;-88
2022/01/25 02:32:11;;;;;;;116.37;56.57;;;3.90;90.00;;;;;;5038225;28;20169;-88
2022/01/25 02:34:37;;;;;;;109.80;56.67;;;3.80;90.20;;;;;;5021099;28;20204;-88
2022/01/25 02:37:06;;;;;;;120.07;58.30;;;3.80;90.30;;;;;;5022251;28;20197;-88
2022/01/25 02:39:34;;;;;;;110.53;56.07;;;3.80;90.40;;;;;;5022316;28;20263;-89
2022/01/25 02:42:00;;;;;;;117.73;55.93;;;3.80;90.40;;;;;;5021527;28;20234;-89
2022/01/25 02:44:27;;;;;;;114.90;53.57;;;3.80;90.50;;;;;;5021024;28;20657;-87
2022/01/25 02:49:33;;;;;;;129.90;58.70;;;3.80;90.80;;;;;;5039039;28;20176;-89
2022/01/25 02:52:02;;;;;;;125.00;56.63;;;3.80;90.80;;;;;;5037655;28;20166;-88
2022/01/25 02:54:28;;;;;;;110.43;55.40;;;3.80;90.90;;;;;;5020474;28;20180;-88
2022/01/25 02:56:55;;;;;;;125.33;58.57;;;3.80;91.10;;;;;;5037901;28;20189;-88
2022/01/25 02:59:21;;;;;;;129.00;60.07;;;3.70;91.20;;;;;;5020642;28;20203;-89
2022/01/25 03:01:48;;;;;;;122.87;58.87;;;3.70;91.30;;;;;;5038771;28;20208;-89
2022/01/25 03:04:18;;;;;;;123.30;60.13;;;3.70;91.30;;;;;;5021199;28;20184;-89
2022/01/25 03:06:43;;;;;;;118.27;56.50;;;3.80;91.40;;;;;;5021575;28;20191;-88
2022/01/25 03:09:09;;;;;;;125.80;58.90;;;3.80;91.50;;;;;;5039269;28;20230;-88
2022/01/25 03:11:35;;;;;;;120.20;58.60;;;3.70;91.50;;;;;;5020649;28;20176;-88
2022/01/25 03:14:06;;;;;;;127.27;59.90;;;3.70;91.60;;;;;;5039502;28;20248;-89
2022/01/25 03:16:42;;;;;;;130.07;58.80;;;3.70;91.60;;;;;;5019556;28;20175;-88
2022/01/25 03:22:32;;;;;;;117.03;56.57;;;3.70;91.70;;;;;;5037874;28;20165;-87
2022/01/25 03:24:58;;;;;;;127.47;59.67;;;3.70;91.70;;;;;;5020412;28;20173;-89
2022/01/25 03:27:24;;;;;;;130.77;58.77;;;3.60;91.70;;;;;;5020141;28;20219;-86
2022/01/25 03:29:50;;;;;;;131.20;61.73;;;3.70;91.80;;;;;;5036598;28;20196;-88
2022/01/25 03:32:15;;;;;;;132.27;57.67;;;3.60;91.80;;;;;;5020823;28;20191;-89
2022/01/25 03:34:41;;;;;;;122.10;56.77;;;3.70;91.80;;;;;;5035677;28;20222;-89
2022/01/25 03:37:06;;;;;;;128.60;57.63;;;3.70;91.80;;;;;;5036794;28;20200;-87
2022/01/25 03:39:32;;;;;;;122.10;59.70;;;3.70;91.80;;;;;;5035169;28;20180;-88
2022/01/25 03:41:58;;;;;;;134.77;58.90;;;3.70;91.70;;;;;;5020957;28;20177;-89
2022/01/25 03:44:24;;;;;;;126.60;58.57;;;3.60;91.70;;;;;;5021128;28;20180;-89
2022/01/25 03:52:02;;;;;;;128.07;59.30;;;3.70;91.60;;;;;;5038145;28;20181;-88
2022/01/25 03:54:28;;;;;;;127.63;59.43;;;3.70;91.60;;;;;;5020928;28;20204;-88
2022/01/25 03:56:54;;;;;;;126.27;61.30;;;3.70;91.70;;;;;;5038023;28;20674;-88
2022/01/25 03:59:19;;;;;;;119.80;57.97;;;3.70;91.70;;;;;;5037682;28;20212;-88
2022/01/25 04:01:45;;;;;;;123.47;57.53;;;3.70;91.70;;;;;;5021032;28;20595;-89
2022/01/25 04:04:15;;;;;;;122.77;57.40;;;3.70;91.80;;;;;;5018518;28;20184;-90
2022/01/25 04:06:44;;;;;;;116.43;54.87;;;3.70;91.80;;;;;;5037755;28;20540;-87
2022/01/25 04:09:10;;;;;;;119.63;55.67;;;3.70;91.70;;;;;;5036712;28;20327;-86
2022/01/25 04:11:36;;;;;;;121.70;54.23;;;3.70;91.60;;;;;;5038005;28;20197;-88
2022/01/25 04:14:03;;;;;;;131.87;60.00;;;3.70;91.60;;;;;;5019462;28;20648;-87
2022/01/25 04:16:49;;;;;;;124.87;57.47;;;3.70;91.40;;;;;;5037078;28;20172;-88
2022/01/25 04:25:13;;;;;;;130.57;60.20;;;3.70;91.50;;;;;;5037355;28;20252;-89
2022/01/25 04:27:38;;;;;;;122.63;58.17;;;3.70;91.50;;;;;;5018605;28;20574;-87
2022/01/25 04:30:05;;;;;;;120.50;56.17;;;3.70;91.50;;;;;;5018452;28;20173;-88
2022/01/25 04:32:42;;;;;;;132.43;61.00;;;3.80;91.40;;;;;;5037234;28;20177;-88
2022/01/25 04:35:29;;;;;;;125.83;57.40;;;3.80;91.40;;;;;;5019907;28;20165;-89
2022/01/25 04:49:22;;;;;;;124.30;58.43;;;3.80;91.60;;;;;;5036302;28;20202;-88
2022/01/25 05:01:39;;;;;;;117.30;56.43;;;3.80;91.60;;;;;;5036775;28;20267;-87
2022/01/25 05:04:13;;;;;;;118.83;58.87;;;3.70;91.70;;;;;;5018319;28;20173;-89
2022/01/25 05:06:41;;;;;;;123.33;58.33;;;3.70;91.80;;;;;;5017807;28;20169;-88
2022/01/25 05:09:12;;;;;;;121.80;59.17;;;3.70;91.90;;;;;;5017677;28;20259;-88
2022/01/25 05:11:44;;;;;;;126.40;61.13;;;3.70;91.90;;;;;;5018399;28;20161;-88
2022/01/25 05:14:18;;;;;;;108.57;49.97;;;3.70;92.00;;;;;;5034334;28;20161;-89
2022/01/25 05:16:54;;;;;;;113.83;54.90;;;3.70;92.00;;;;;;5018087;28;20161;-88
2022/01/25 05:19:35;;;;;;;124.23;58.93;;;3.70;92.10;;;;;;5018417;28;20633;-87
2022/01/25 05:22:18;;;;;;;121.33;57.80;;;3.70;92.10;;;;;;5017467;28;20183;-88
2022/01/25 05:24:44;;;;;;;118.90;55.87;;;3.70;92.20;;;;;;5018985;28;20166;-87
2022/01/25 05:27:11;;;;;;;125.70;58.50;;;3.70;92.30;;;;;;5022664;28;20197;-88
2022/01/25 05:29:38;;;;;;;127.70;56.27;;;3.70;92.20;;;;;;5022082;28;20185;-87
2022/01/25 05:32:04;;;;;;;141.03;60.03;;;3.70;92.30;;;;;;5039127;28;20641;-89
2022/01/25 05:34:31;;;;;;;123.50;56.80;;;3.70;92.40;;;;;;5039683;28;20173;-87
2022/01/25 05:36:56;;;;;;;134.47;58.20;;;3.70;92.40;;;;;;5037989;28;20219;-90
2022/01/25 05:39:28;;;;;;;125.47;58.37;;;3.70;92.40;;;;;;5039860;28;20709;-86
2022/01/25 05:41:57;;;;;;;122.37;57.13;;;3.70;92.40;;;;;;5021111;28;20169;-88
2022/01/25 05:44:54;;;;;;;123.27;57.50;;;3.70;92.50;;;;;;5021882;28;20263;-87
2022/01/25 05:47:14;;;;;;;124.73;56.80;;;3.80;92.50;;;;;;5039250;28;20197;-88
2022/01/25 05:49:40;;;;;;;122.77;55.33;;;3.70;92.60;;;;;;5040674;28;20165;-88
2022/01/25 05:52:09;;;;;;;119.00;55.50;;;3.80;92.70;;;;;;5022372;28;20268;-88
2022/01/25 05:54:36;;;;;;;120.47;54.03;;;3.70;92.70;;;;;;5022330;28;20173;-88
2022/01/25 05:57:02;;;;;;;125.10;55.93;;;3.80;92.70;;;;;;5022108;28;20216;-88
2022/01/25 05:59:28;;;;;;;123.87;56.50;;;3.70;92.80;;;;;;5022298;28;20179;-89
2022/01/25 06:01:53;;;;;;;122.27;55.10;;;3.70;92.90;;;;;;5022490;28;20205;-88
2022/01/25 06:04:21;;;;;;;119.03;57.40;;;3.80;92.90;;;;;;5022317;28;20176;-88
2022/01/25 06:06:47;;;;;;;119.67;54.53;;;3.70;92.90;;;;;;5038999;28;20177;-88
2022/01/25 06:09:13;;;;;;;125.57;58.30;;;3.80;93.00;;;;;;5018606;28;20213;-88
2022/01/25 06:11:38;;;;;;;113.73;54.57;;;3.80;92.90;;;;;;5036225;28;20215;-88
2022/01/25 06:14:04;;;;;;;119.63;51.67;;;3.70;93.00;;;;;;5018312;28;20184;-88
2022/01/25 06:16:30;;;;;;;118.60;55.20;;;3.70;93.00;;;;;;5035822;28;20172;-89
2022/01/25 06:18:57;;;;;;;130.00;56.87;;;3.70;93.10;;;;;;5035684;28;20570;-89
2022/01/25 06:21:23;;;;;;;124.30;57.93;;;3.80;93.10;;;;;;5036077;28;20184;-89
2022/01/25 06:23:49;;;;;;;119.23;54.83;;;3.80;93.10;;;;;;5017922;28;20640;-88
2022/01/25 06:26:15;;;;;;;130.23;57.63;;;3.80;93.00;;;;;;5017751;28;20185;-89
2022/01/25 06:28:41;;;;;;;125.07;56.67;;;3.80;93.00;;;;;;5035659;28;20204;-89
2022/01/25 06:31:08;;;;;;;123.07;56.83;;;3.80;93.00;;;;;;5035680;28;20183;-88
2022/01/25 06:33:34;;;;;;;120.73;57.77;;;3.80;93.00;;;;;;5017720;28;20635;-88
2022/01/25 06:36:00;;;;;;;119.23;57.43;;;3.90;93.10;;;;;;5034456;28;20174;-89
2022/01/25 06:38:27;;;;;;;119.60;56.63;;;3.80;93.00;;;;;;5033630;28;20197;-89
2022/01/25 06:40:53;;;;;;;117.03;57.03;;;3.80;93.00;;;;;;5017503;28;20184;-89
2022/01/25 06:43:19;;;;;;;122.83;57.87;;;3.80;93.00;;;;;;5033915;28;20557;-89
2022/01/25 06:45:51;;;;;;;115.30;55.20;;;3.80;93.10;;;;;;5017519;28;20188;-89
2022/01/25 06:48:16;;;;;;;120.57;56.97;;;3.80;93.10;;;;;;5035244;28;20213;-89
2022/01/25 06:50:42;;;;;;;121.80;57.20;;;3.90;93.20;;;;;;5033883;28;20656;-89
2022/01/25 06:53:08;;;;;;;128.50;58.27;;;3.80;93.20;;;;;;5017425;28;20177;-88
2022/01/25 06:55:33;;;;;;;121.57;57.97;;;3.80;93.40;;;;;;5017291;28;20216;-88
2022/01/25 06:57:59;;;;;;;118.90;53.03;;;3.90;93.40;;;;;;5017538;28;20200;-88
2022/01/25 07:00:25;;;;;;;119.73;53.73;;;3.90;93.50;;;;;;5017192;28;20645;-88
2022/01/25 07:02:50;;;;;;;126.67;57.30;;;3.80;93.60;;;;;;5034870;28;20170;-89
2022/01/25 07:05:16;;;;;;;128.47;55.50;;;3.80;93.60;;;;;;5017420;28;20190;-89
2022/01/25 07:07:42;;;;;;;137.00;58.97;;;3.80;93.60;;;;;;5034759;28;20208;-88
2022/01/25 07:10:09;;;;;;;137.67;57.20;;;3.80;93.60;;;;;;5017227;28;20184;-89
2022/01/25 07:12:35;;;;;;;139.00;60.07;;;3.80;93.70;;;;;;5033380;28;20600;-88
2022/01/25 07:15:01;;;;;;;128.70;58.30;;;3.80;93.70;;;;;;5016842;28;20227;-88
2022/01/25 07:17:26;;;;;;;124.50;57.33;;;3.80;93.80;;;;;;5033259;28;20200;-89
2022/01/25 07:19:52;;;;;;;127.10;57.83;;;3.80;93.80;;;;;;5033254;28;20181;-88
2022/01/25 07:22:18;;;;;;;130.40;57.37;;;3.80;93.90;;;;;;5017319;28;20522;-89
2022/01/25 07:24:43;;;;;;;143.03;59.37;;;3.80;93.90;;;;;;5016741;28;20271;-89
2022/01/25 07:27:09;;;;;;;130.03;57.47;;;3.80;93.90;;;;;;5016502;28;20200;-89
2022/01/25 07:29:35;;;;;;;136.07;58.63;;;3.80;94.00;;;;;;5017027;28;20185;-88
2022/01/25 07:32:00;;;;;;;135.67;59.37;;;3.80;94.00;;;;;;5034316;28;20537;-88
2022/01/25 07:34:27;;;;;;;135.60;58.10;;;3.80;94.10;;;;;;5016561;28;20379;-89
2022/01/25 07:36:53;;;;;;;130.57;58.30;;;3.80;94.20;;;;;;5034559;28;20217;-89
2022/01/25 07:39:18;;;;;;;132.33;61.10;;;3.80;94.20;;;;;;5033235;28;20592;-88
2022/01/25 07:41:45;;;;;;;141.77;61.17;;;3.80;94.20;;;;;;5034067;28;20235;-88
2022/01/25 07:44:11;;;;;;;139.80;59.30;;;3.80;94.30;;;;;;5016322;28;20181;-88
2022/01/25 07:46:37;;;;;;;133.17;56.43;;;3.80;94.30;;;;;;5016406;28;20178;-89
2022/01/25 07:49:04;;;;;;;133.53;59.27;;;3.80;94.30;;;;;;5015816;28;20201;-88
2022/01/25 07:51:30;;;;;;;146.70;59.40;;;3.80;94.30;;;;;;5016214;28;20235;-88
2022/01/25 07:53:56;;;;;;;135.47;58.63;;;3.80;94.40;;;;;;5016259;28;20610;-89
2022/01/25 07:56:22;;;;;;;134.60;58.07;;;3.80;94.40;;;;;;5034003;28;20169;-88
2022/01/25 07:58:48;;;;;;;139.90;59.03;;;3.80;94.40;;;;;;5016022;28;20251;-89
2022/01/25 08:01:18;;;;;;;138.43;57.93;;;3.80;94.40;;;;;;5016156;28;20176;-88
2022/01/25 08:03:44;;;;;;;135.63;58.33;;;3.90;94.50;;;;;;5032633;28;20227;-88
2022/01/25 08:06:10;;;;;;;142.10;59.63;;;3.90;94.50;;;;;;5016076;28;20224;-89
2022/01/25 08:08:36;;;;;;;139.43;59.67;;;3.90;94.50;;;;;;5015855;28;20754;-88
2022/01/25 08:11:03;;;;;;;132.87;54.60;;;3.80;94.40;;;;;;5033626;28;20176;-87
2022/01/25 08:13:29;;;;;;;138.07;58.17;;;3.90;94.50;;;;;;5015866;28;20180;-87
2022/01/25 08:15:55;;;;;;;142.83;59.20;;;3.90;94.50;;;;;;5032449;28;20200;-88
2022/01/25 08:18:21;;;;;;;140.40;58.33;;;3.90;94.60;;;;;;5016077;28;20684;-88
2022/01/25 08:20:47;;;;;;;148.90;59.53;;;3.90;94.60;;;;;;5015897;28;20185;-88
2022/01/25 08:23:13;;;;;;;135.90;56.57;;;3.90;94.60;;;;;;5033445;28;20169;-88
2022/01/25 08:25:39;;;;;;;134.00;56.90;;;3.90;94.70;;;;;;5015737;28;20187;-87
2022/01/25 08:28:04;;;;;;;149.33;59.80;;;4.00;94.70;;;;;;5033270;28;20197;-87
2022/01/25 08:30:30;;;;;;;131.03;56.93;;;3.90;94.70;;;;;;5032117;28;20196;-88
2022/01/25 08:32:56;;;;;;;129.73;54.77;;;3.90;94.70;;;;;;5015680;28;20208;-88
2022/01/25 08:35:23;;;;;;;146.50;58.70;;;3.90;94.70;;;;;;5015676;28;20642;-88
2022/01/25 08:37:49;;;;;;;140.23;59.90;;;3.90;94.70;;;;;;5033233;28;20197;-88
2022/01/25 08:40:15;;;;;;;139.13;56.23;;;3.90;94.80;;;;;;5033399;28;20177;-88
2022/01/25 08:42:41;;;;;;;132.77;57.60;;;4.00;94.80;;;;;;5015522;28;20177;-88
2022/01/25 08:45:08;;;;;;;127.40;54.37;;;4.00;94.80;;;;;;5015548;28;20258;-88
2022/01/25 08:47:36;;;;;;;134.97;56.40;;;4.00;94.80;;;;;;5015352;28;20233;-88
2022/01/25 08:50:03;;;;;;;140.97;55.80;;;4.00;94.90;;;;;;5033179;28;20167;-88
2022/01/25 08:52:28;;;;;;;141.23;57.30;;;4.00;94.90;;;;;;5015544;28;20177;-87
2022/01/25 08:54:54;;;;;;;132.80;56.17;;;4.10;94.90;;;;;;5015923;28;20180;-88
2022/01/25 08:57:20;;;;;;;139.57;58.57;;;4.10;94.90;;;;;;5015395;28;20330;-88
2022/01/25 08:59:45;;;;;;;139.83;57.73;;;4.10;94.90;;;;;;5016196;28;20180;-89
2022/01/25 09:02:11;;;;;;;138.20;56.10;;;4.10;95.00;;;;;;5037040;28;20173;-88
2022/01/25 09:04:37;;;;;;;141.83;54.60;;;4.10;95.00;;;;;;5037028;28;20200;-88
2022/01/25 09:07:02;;;;;;;145.83;58.23;;;4.10;95.00;;;;;;5035517;28;20673;-88
2022/01/25 09:09:28;;;;;;;138.03;56.10;;;4.10;95.00;;;;;;5035658;28;20204;-88
2022/01/25 09:11:56;;;;;;;137.00;55.03;;;4.10;95.10;;;;;;5019196;28;20574;-89
2022/01/25 09:14:22;;;;;;;140.63;57.73;;;4.10;95.10;;;;;;5019178;28;20645;-89
2022/01/25 09:16:48;;;;;;;135.97;57.10;;;4.10;95.10;;;;;;5019010;28;20224;-89
2022/01/25 09:19:14;;;;;;;150.23;59.77;;;4.10;95.10;;;;;;5036751;28;20240;-89
2022/01/25 09:21:40;;;;;;;146.93;56.67;;;4.20;95.10;;;;;;5036697;28;20664;-89
2022/01/25 09:24:06;;;;;;;152.43;56.80;;;4.10;95.20;;;;;;5036355;28;20177;-89
2022/01/25 09:26:32;;;;;;;140.27;54.23;;;4.20;95.20;;;;;;5036513;28;20176;-90
2022/01/25 09:28:58;;;;;;;140.27;55.33;;;4.20;95.20;;;;;;5036519;28;20201;-90
2022/01/25 09:31:25;;;;;;;145.83;57.43;;;4.30;95.30;;;;;;5035398;28;20549;-90
2022/01/25 09:33:51;;;;;;;144.93;54.27;;;4.30;95.30;;;;;;5018892;28;20222;-90
2022/01/25 09:36:17;;;;;;;148.23;56.10;;;4.30;95.30;;;;;;5035178;28;20553;-90
2022/01/25 09:38:43;;;;;;;149.23;58.17;;;4.30;95.30;;;;;;5018549;28;20217;-89
2022/01/25 09:41:09;;;;;;;148.80;56.17;;;4.30;95.30;;;;;;5018893;28;20181;-89
2022/01/25 09:43:35;;;;;;;148.57;55.10;;;4.30;95.30;;;;;;5018756;28;20203;-89
2022/01/25 09:46:01;;;;;;;144.30;55.43;;;4.30;95.30;;;;;;5018516;28;20644;-89
2022/01/25 09:48:27;;;;;;;143.73;56.27;;;4.30;95.40;;;;;;5018399;28;20212;-90
2022/01/25 09:50:55;;;;;;;142.50;56.40;;;4.30;95.40;;;;;;5018650;28;20605;-89
2022/01/25 09:53:20;;;;;;;149.30;57.63;;;4.30;95.40;;;;;;5036093;28;20169;-90
2022/01/25 09:55:46;;;;;;;142.93;55.90;;;4.40;95.40;;;;;;5018471;28;20669;-88
2022/01/25 09:58:13;;;;;;;136.57;51.77;;;4.30;95.30;;;;;;5018353;28;20200;-89
2022/01/25 10:00:41;;;;;;;141.27;55.40;;;4.40;95.30;;;;;;5018283;28;20183;-88
2022/01/25 10:03:19;;;;;;;123.73;50.10;;;4.50;95.30;;;;;;5018231;28;20719;-90
2022/01/25 10:05:47;;;;;;;136.47;53.93;;;4.40;95.30;;;;;;5035984;28;20150;-90
2022/01/25 10:08:16;;;;;;;145.33;57.50;;;4.50;95.30;;;;;;5018058;28;20213;-89
2022/01/25 10:10:58;;;;;;;144.17;57.33;;;4.50;95.30;;;;;;5017846;28;20185;-90
2022/01/25 10:13:27;;;;;;;145.33;53.13;;;4.60;95.30;;;;;;5018130;28;20631;-89
2022/01/25 10:16:04;;;;;;;128.00;51.13;;;4.60;95.30;;;;;;5017997;28;20295;-89
2022/01/25 10:18:50;;;;;;;131.23;50.27;;;4.60;95.30;;;;;;5017885;28;20285;-90
2022/01/25 10:21:24;;;;;;;139.67;50.50;;;4.70;95.30;;;;;;5017871;28;20178;-88
2022/01/25 10:24:15;;;;;;;139.67;53.53;;;4.60;95.30;;;;;;5017896;28;20259;-90
2022/01/25 10:26:42;;;;;;;128.10;49.43;;;4.70;95.30;;;;;;5035781;28;20648;-89
2022/01/25 10:29:09;;;;;;;128.73;50.97;;;4.70;95.30;;;;;;5017834;28;20207;-88
2022/01/25 10:31:38;;;;;;;132.03;50.80;;;4.80;95.30;;;;;;5017691;28;20175;-90
2022/01/25 10:34:06;;;;;;;119.50;50.27;;;4.80;95.30;;;;;;5017979;28;20174;-89
2022/01/25 10:36:33;;;;;;;126.03;49.37;;;4.80;95.20;;;;;;5017467;28;20177;-88
2022/01/25 10:38:58;;;;;;;115.70;43.53;;;4.80;95.30;;;;;;5035284;28;20203;-90
2022/01/25 10:41:26;;;;;;;110.93;44.60;;;4.90;95.30;;;;;;5017669;28;20182;-90
2022/01/25 10:43:54;;;;;;;118.67;47.10;;;4.90;95.20;;;;;;5035484;28;20508;-90
2022/01/25 10:46:30;;;;;;;114.00;47.00;;;4.90;95.20;;;;;;5017391;28;20274;-90
2022/01/25 10:49:08;;;;;;;113.57;45.17;;;5.00;95.20;;;;;;5035071;28;20192;-89
2022/01/25 10:51:39;;;;;;;128.60;47.00;;;5.00;95.20;;;;;;5017253;28;20177;-89
2022/01/25 10:54:14;;;;;;;111.50;41.67;;;5.00;95.20;;;;;;5035035;28;20156;-89
2022/01/25 10:56:56;;;;;;;124.07;46.80;;;5.10;95.20;;;;;;5017136;28;20168;-89
2022/01/25 10:59:29;;;;;;;108.03;43.50;;;5.10;95.20;;;;;;5034935;28;20217;-88
2022/01/25 11:02:00;;;;;;;114.97;43.53;;;5.00;95.10;;;;;;5018257;28;20178;-88
2022/01/25 11:04:34;;;;;;;111.30;44.33;;;5.00;95.00;;;;;;5017055;28;20262;-88
2022/01/25 11:07:03;;;;;;;108.10;43.87;;;5.00;95.00;;;;;;5034545;28;20262;-88
2022/01/25 11:09:36;;;;;;;116.27;46.17;;;5.10;95.00;;;;;;5034577;28;20191;-89
2022/01/25 11:12:04;;;;;;;107.40;42.77;;;5.10;95.00;;;;;;5016985;28;20172;-89
2022/01/25 11:17:15;;;;;;;104.77;43.23;;;5.10;94.90;;;;;;5035001;28;20196;-89
2022/01/25 11:19:40;;;;;;;98.57;40.33;;;5.10;94.90;;;;;;5034503;28;20632;-89
2022/01/25 11:22:10;;;;;;;108.43;44.33;;;5.10;94.90;;;;;;5016459;28;20180;-89
2022/01/25 11:24:38;;;;;;;97.07;41.33;;;5.10;94.80;;;;;;5016774;28;20178;-90
2022/01/25 11:27:06;;;;;;;104.57;41.73;;;5.10;94.80;;;;;;5034325;28;20265;-89
2022/01/25 11:29:37;;;;;;;98.53;40.73;;;5.10;94.80;;;;;;5034284;28;20206;-89
2022/01/25 11:32:07;;;;;;;90.80;39.33;;;5.10;94.80;;;;;;5016739;28;20171;-89
2022/01/25 11:34:35;;;;;;;95.17;37.97;;;5.20;94.80;;;;;;5016590;28;20182;-90
2022/01/25 11:37:04;;;;;;;90.80;38.97;;;5.20;94.80;;;;;;5016525;28;20279;-90
2022/01/25 11:39:31;;;;;;;98.80;39.83;;;5.10;94.80;;;;;;5016481;28;20177;-90
2022/01/25 11:42:11;;;;;;;96.63;40.37;;;5.20;94.80;;;;;;5016728;28;20175;-88
2022/01/25 11:45:11;;;;;;;93.43;41.37;;;5.20;94.70;;;;;;5016623;28;20216;-88
2022/01/25 11:47:37;;;;;;;91.93;37.97;;;5.30;94.70;;;;;;4974509;28;20250;-89
2022/01/25 11:50:11;;;;;;;91.87;38.10;;;5.20;94.70;;;;;;5034041;28;20171;-89
2022/01/25 11:52:47;;;;;;;91.40;38.10;;;5.30;94.70;;;;;;5016280;28;20183;-90
2022/01/25 11:55:21;;;;;;;85.97;36.40;;;5.30;94.70;;;;;;5016350;28;20171;-89
2022/01/25 11:57:58;;;;;;;84.00;35.23;;;5.30;94.70;;;;;;5016126;28;20241;-88
2022/01/25 12:00:47;;;;;;;87.10;36.43;;;5.30;94.70;;;;;;5033846;28;20187;-88
2022/01/25 12:03:40;;;;;;;87.03;35.63;;;5.40;94.70;;;;;;5016129;28;20638;-88
2022/01/25 12:06:12;;;;;;;80.60;35.17;;;5.50;94.70;;;;;;5016196;28;20519;-89
2022/01/25 12:11:49;;;;;;;77.27;33.40;;;5.40;94.60;;;;;;5034785;28;20163;-91
2022/01/25 12:14:38;;;;;;;72.43;31.50;;;5.40;94.60;;;;;;5016831;28;20160;-92
2022/01/25 12:17:04;;;;;;;76.73;33.47;;;5.40;94.50;;;;;;5007276;28;20191;-92
2022/01/25 12:19:44;;;;;;;66.50;31.03;;;5.40;94.50;;;;;;5018005;28;20560;-91
2022/01/25 12:22:35;;;;;;;73.93;33.30;;;5.40;94.50;;;;;;5016770;28;20166;-91
2022/01/25 12:25:15;;;;;;;71.40;31.17;;;5.40;94.40;;;;;;5016818;28;20237;-91
2022/01/25 12:27:54;;;;;;;67.47;31.77;;;5.30;94.40;;;;;;5016960;28;20208;-91
2022/01/25 12:30:26;;;;;;;70.80;33.07;;;5.40;94.40;;;;;;5017672;28;20222;-91
2022/01/25 12:33:27;;;;;;;60.97;29.30;;;5.40;94.40;;;;;;5016584;28;20547;-92
2022/01/25 12:35:59;;;;;;;59.63;28.47;;;5.40;94.40;;;;;;5017234;28;20171;-92
2022/01/25 12:38:38;;;;;;;70.63;31.23;;;5.40;94.40;;;;;;5016739;28;20220;-91
2022/01/25 12:41:20;;;;;;;63.90;28.20;;;5.40;94.40;;;;;;5016752;28;20183;-91
2022/01/25 12:43:54;;;;;;;60.90;29.30;;;5.40;94.40;;;;;;5017014;28;20168;-91
2022/01/25 12:46:29;;;;;;;59.63;28.40;;;5.50;94.40;;;;;;5016573;28;20175;-92
2022/01/25 12:49:02;;;;;;;60.53;30.13;;;5.50;94.30;;;;;;5016761;28;20208;-91
2022/01/25 12:51:30;;;;;;;58.03;26.53;;;5.40;94.30;;;;;;5016235;28;20196;-91
2022/01/25 12:53:59;;;;;;;59.87;28.90;;;5.40;94.20;;;;;;5016975;28;20666;-91
2022/01/25 12:56:34;;;;;;;52.60;26.40;;;5.40;94.30;;;;;;5016336;28;20184;-91
2022/01/25 12:59:10;;;;;;;59.27;28.87;;;5.40;94.20;;;;;;5017158;28;20200;-92
2022/01/25 13:01:41;;;;;;;58.07;27.03;;;5.40;94.20;;;;;;5017635;28;20207;-91
2022/01/25 13:04:08;;;;;;;63.97;28.70;;;5.40;94.20;;;;;;5020156;28;20183;-91
2022/01/25 13:06:39;;;;;;;52.80;27.50;;;5.40;94.20;;;;;;5016931;28;20207;-91
2022/01/25 13:14:31;;;;;;;59.50;26.30;;;5.40;94.20;;;;;;5034137;28;20162;-92
2022/01/25 13:16:58;;;;;;;53.90;25.97;;;5.40;94.20;;;;;;5016353;28;20286;-92
2022/01/25 13:19:43;;;;;;;58.53;27.63;;;5.40;94.20;;;;;;5016715;28;20262;-91
2022/01/25 13:22:21;;;;;;;57.63;26.87;;;5.40;94.20;;;;;;5017043;28;20598;-91
2022/01/25 13:24:59;;;;;;;49.23;25.30;;;5.30;94.20;;;;;;5016308;28;20172;-91
2022/01/25 13:27:34;;;;;;;55.60;25.20;;;5.30;94.30;;;;;;5016301;28;20209;-91
2022/01/25 13:32:50;;;;;;;56.13;26.40;;;5.30;94.40;;;;;;5034239;28;20632;-91
2022/01/25 13:35:27;;;;;;;49.43;22.17;;;5.40;94.50;;;;;;5016774;28;20251;-91
2022/01/25 13:38:19;;;;;;;55.37;24.63;;;5.30;94.60;;;;;;5017354;28;20283;-91
2022/01/25 13:41:04;;;;;;;52.90;25.47;;;5.30;94.60;;;;;;5016587;28;20195;-92
2022/01/25 13:46:24;;;;;;;53.80;23.40;;;5.30;94.70;;;;;;5038854;28;20232;-91
2022/01/25 13:48:53;;;;;;;52.40;25.70;;;5.30;94.70;;;;;;5019115;28;20198;-91
2022/01/25 13:51:21;;;;;;;57.40;24.97;;;5.30;94.60;;;;;;5019736;28;20172;-91
2022/01/25 13:53:56;;;;;;;49.60;25.07;;;5.30;94.70;;;;;;5019849;28;20178;-91
2022/01/25 13:56:25;;;;;;;54.43;24.53;;;5.30;94.70;;;;;;5020291;28;20187;-92
2022/01/25 13:58:52;;;;;;;50.13;23.50;;;5.30;94.70;;;;;;5019398;28;20563;-91
2022/01/25 14:01:21;;;;;;;48.57;22.73;;;5.30;94.70;;;;;;5019099;28;20547;-91
2022/01/25 14:04:09;;;;;;;53.70;23.63;;;5.30;94.70;;;;;;5019803;28;20182;-91
2022/01/25 14:06:43;;;;;;;55.03;23.67;;;5.30;94.80;;;;;;5020719;28;20747;-91
2022/01/25 14:09:22;;;;;;;55.00;24.77;;;5.30;94.80;;;;;;5036889;28;20684;-89
2022/01/25 14:21:33;;;;;;;52.97;25.37;;;5.30;94.80;;;;;;5035927;28;20152;-90
2022/01/25 14:25:30;;;;;;;51.77;25.07;;;5.30;94.50;;;;;;5035640;28;20166;-90
2022/01/25 14:27:58;;;;;;;49.43;23.60;;;5.30;94.50;;;;;;5017809;28;20261;-90
2022/01/25 14:30:24;;;;;;;46.03;22.07;;;5.30;94.50;;;;;;5018840;28;20174;-90
2022/01/25 14:33:00;;;;;;;53.27;23.97;;;5.30;94.40;;;;;;5017759;28;20172;-90
2022/01/25 14:35:27;;;;;;;50.83;22.93;;;5.30;94.50;;;;;;5018065;28;20164;-90
2022/01/25 14:37:53;;;;;;;41.60;20.50;;;5.30;94.40;;;;;;5017623;28;20557;-90
2022/01/25 14:40:19;;;;;;;46.53;22.23;;;5.30;94.40;;;;;;5017656;28;20190;-90
2022/01/25 14:42:47;;;;;;;44.70;22.00;;;5.20;94.40;;;;;;5017474;28;20191;-90
2022/01/25 14:45:21;;;;;;;44.40;21.20;;;5.30;94.40;;;;;;5018848;28;20183;-89